createdAt,value
2023-10-17T00:00:43.990Z,0.00
2023-10-17T00:01:39.018Z,0.00
2023-10-17T00:02:34.066Z,0.00
2023-10-17T00:03:29.186Z,0.00
2023-10-17T00:04:24.404Z,0.00
2023-10-17T00:05:19.402Z,0.00
2023-10-17T00:06:14.384Z,0.00
2023-10-17T00:07:09.241Z,0.00
2023-10-17T00:08:04.326Z,0.00
2023-10-17T00:08:59.329Z,0.00
2023-10-17T00:09:54.407Z,0.00
2023-10-17T00:10:49.420Z,0.00
2023-10-17T00:11:44.608Z,0.00
2023-10-17T00:12:39.864Z,0.00
2023-10-17T00:13:34.928Z,0.00
2023-10-17T00:14:30.246Z,0.00
2023-10-17T00:15:25.359Z,0.00
2023-10-17T00:16:20.435Z,0.00
2023-10-17T00:17:15.601Z,0.00
2023-10-17T00:18:10.852Z,0.00
2023-10-17T00:19:06.017Z,0.00
2023-10-17T00:20:01.157Z,0.00
2023-10-17T00:20:55.994Z,0.00
2023-10-17T00:21:51.002Z,0.00
2023-10-17T00:22:46.052Z,0.00
2023-10-17T00:23:41.058Z,0.00
2023-10-17T00:24:36.446Z,0.00
2023-10-17T00:25:31.177Z,0.00
2023-10-17T00:26:26.226Z,0.00
2023-10-17T00:27:21.252Z,0.00
2023-10-17T00:28:16.309Z,0.00
2023-10-17T00:29:11.398Z,0.00
2023-10-17T00:30:06.642Z,0.00
2023-10-17T00:31:01.522Z,0.00
2023-10-17T00:31:56.554Z,0.00
2023-10-17T00:32:51.601Z,0.00
2023-10-17T00:33:46.672Z,0.00
2023-10-17T00:34:41.700Z,0.00
2023-10-17T00:35:36.775Z,0.00
2023-10-17T00:36:31.774Z,0.00
2023-10-17T00:37:26.861Z,0.00
2023-10-17T00:38:21.987Z,0.00
2023-10-17T00:39:17.323Z,0.00
2023-10-17T00:40:12.546Z,0.00
2023-10-17T00:41:08.850Z,0.00
2023-10-17T00:42:02.763Z,0.00
2023-10-17T00:42:57.927Z,0.00
2023-10-17T00:43:53.091Z,0.00
2023-10-17T00:44:49.159Z,0.00
2023-10-17T00:45:44.456Z,0.00
2023-10-17T00:46:39.775Z,0.00
2023-10-17T00:47:35.805Z,0.00
2023-10-17T00:48:31.109Z,0.00
2023-10-17T00:49:26.746Z,0.00
2023-10-17T00:50:21.937Z,0.00
2023-10-17T00:51:17.257Z,0.00
2023-10-17T00:52:13.006Z,0.00
2023-10-17T00:53:08.240Z,0.00
2023-10-17T00:54:04.105Z,0.00
2023-10-17T00:54:59.249Z,0.00
2023-10-17T00:55:54.587Z,0.00
2023-10-17T00:56:50.291Z,0.00
2023-10-17T00:57:45.490Z,0.00
2023-10-17T00:58:40.658Z,0.00
2023-10-17T00:59:37.074Z,0.00
2023-10-17T01:00:32.479Z,0.00
2023-10-17T01:01:28.209Z,0.00
2023-10-17T01:02:23.371Z,0.00
2023-10-17T01:03:18.496Z,0.00
2023-10-17T01:04:14.207Z,0.00
2023-10-17T01:05:09.435Z,0.00
2023-10-17T01:06:05.205Z,0.00
2023-10-17T01:07:00.365Z,0.00
2023-10-17T01:07:55.614Z,0.00
2023-10-17T01:08:51.506Z,0.00
2023-10-17T01:09:46.699Z,0.00
2023-10-17T01:10:42.016Z,0.00
2023-10-17T01:11:38.309Z,0.00
2023-10-17T01:12:33.516Z,0.00
2023-10-17T01:13:29.218Z,0.00
2023-10-17T01:14:24.471Z,0.00
2023-10-17T01:15:19.630Z,0.00
2023-10-17T01:16:15.394Z,0.00
2023-10-17T01:17:10.531Z,0.00
2023-10-17T01:18:06.685Z,0.00
2023-10-17T01:19:01.582Z,0.00
2023-10-17T01:19:56.788Z,0.00
2023-10-17T01:20:52.681Z,0.00
2023-10-17T01:21:47.745Z,0.00
2023-10-17T01:22:43.088Z,0.00
2023-10-17T01:23:39.323Z,0.00
2023-10-17T01:24:34.572Z,0.00
2023-10-17T01:25:30.356Z,0.00
2023-10-17T01:26:25.768Z,0.00
2023-10-17T01:27:21.022Z,0.00
2023-10-17T01:28:16.628Z,0.00
2023-10-17T01:29:11.825Z,0.00
2023-10-17T01:30:07.592Z,0.00
2023-10-17T01:31:02.809Z,0.00
2023-10-17T01:31:58.001Z,0.00
2023-10-17T01:32:53.832Z,0.00
2023-10-17T01:33:48.895Z,0.00
2023-10-17T01:34:44.059Z,0.00
2023-10-17T01:35:40.338Z,0.00
2023-10-17T01:36:35.426Z,0.00
2023-10-17T01:37:31.130Z,0.00
2023-10-17T01:38:26.292Z,0.00
2023-10-17T01:39:21.407Z,0.00
2023-10-17T01:40:17.121Z,0.00
2023-10-17T01:41:12.339Z,0.00
2023-10-17T01:42:08.237Z,0.00
2023-10-17T01:43:03.420Z,0.00
2023-10-17T01:43:58.615Z,0.00
2023-10-17T01:44:53.752Z,0.00
2023-10-17T01:45:49.147Z,0.00
2023-10-17T01:46:44.768Z,0.00
2023-10-17T01:47:39.958Z,0.00
2023-10-17T01:48:35.051Z,0.00
2023-10-17T01:49:30.911Z,0.00
2023-10-17T01:50:26.221Z,0.00
2023-10-17T01:51:21.978Z,0.00
2023-10-17T01:52:17.094Z,0.00
2023-10-17T01:53:12.438Z,0.00
2023-10-17T01:54:08.291Z,0.00
2023-10-17T01:55:03.531Z,0.00
2023-10-17T01:55:58.667Z,0.00
2023-10-17T01:56:55.016Z,0.00
2023-10-17T01:57:50.135Z,0.00
2023-10-17T01:58:46.000Z,0.00
2023-10-17T01:59:41.161Z,0.00
2023-10-17T02:00:36.596Z,0.00
2023-10-17T02:01:31.701Z,0.00
2023-10-17T02:02:26.585Z,0.00
2023-10-17T02:03:21.600Z,0.00
2023-10-17T02:04:16.696Z,0.00
2023-10-17T02:05:11.739Z,0.00
2023-10-17T02:06:06.915Z,0.00
2023-10-17T02:07:01.742Z,0.00
2023-10-17T02:07:56.832Z,0.00
2023-10-17T02:08:51.825Z,0.00
2023-10-17T02:09:46.895Z,0.00
2023-10-17T02:10:45.354Z,0.00
2023-10-17T02:11:40.257Z,0.00
2023-10-17T02:12:35.313Z,0.00
2023-10-17T02:13:30.357Z,0.00
2023-10-17T02:14:25.491Z,0.00
2023-10-17T02:15:20.519Z,0.00
2023-10-17T02:16:15.497Z,0.00
2023-10-17T02:17:10.550Z,0.00
2023-10-17T02:18:05.910Z,0.00
2023-10-17T02:19:01.058Z,0.00
2023-10-17T02:19:56.352Z,0.00
2023-10-17T02:20:51.616Z,0.00
2023-10-17T02:21:46.517Z,0.00
2023-10-17T02:22:42.419Z,0.00
2023-10-17T02:23:37.540Z,0.00
2023-10-17T02:24:32.922Z,0.00
2023-10-17T02:25:27.912Z,0.00
2023-10-17T02:26:22.989Z,0.00
2023-10-17T02:27:18.021Z,0.00
2023-10-17T02:28:13.166Z,0.00
2023-10-17T02:29:08.335Z,0.00
2023-10-17T02:30:03.556Z,0.00
2023-10-17T02:30:58.827Z,0.00
2023-10-17T02:31:53.920Z,0.00
2023-10-17T02:32:49.023Z,0.00
2023-10-17T02:33:44.222Z,0.00
2023-10-17T02:34:39.495Z,0.00
2023-10-17T02:35:38.064Z,0.00
2023-10-17T02:36:33.277Z,0.00
2023-10-17T02:37:28.419Z,0.00
2023-10-17T02:38:23.587Z,0.00
2023-10-17T02:39:18.966Z,0.00
2023-10-17T02:40:14.205Z,0.00
2023-10-17T02:41:09.475Z,0.00
2023-10-17T02:42:04.308Z,0.00
2023-10-17T02:42:59.300Z,0.00
2023-10-17T02:43:54.367Z,0.00
2023-10-17T02:44:49.436Z,0.00
2023-10-17T02:45:44.616Z,0.00
2023-10-17T02:46:45.258Z,0.00
2023-10-17T02:47:41.120Z,0.00
2023-10-17T02:48:35.702Z,0.00
2023-10-17T02:49:31.445Z,0.00
2023-10-17T02:50:26.642Z,0.00
2023-10-17T02:51:21.890Z,0.00
2023-10-17T02:52:18.004Z,0.00
2023-10-17T02:53:13.216Z,0.00
2023-10-17T02:54:08.942Z,0.00
2023-10-17T02:55:04.118Z,0.00
2023-10-17T02:55:59.318Z,0.00
2023-10-17T02:56:55.091Z,0.00
2023-10-17T02:57:50.253Z,0.00
2023-10-17T02:58:46.261Z,0.00
2023-10-17T02:59:41.279Z,0.00
2023-10-17T03:00:36.692Z,0.00
2023-10-17T03:01:33.036Z,0.00
2023-10-17T03:02:27.823Z,0.00
2023-10-17T03:03:23.100Z,0.00
2023-10-17T03:04:19.504Z,0.00
2023-10-17T03:05:14.538Z,0.00
2023-10-17T03:06:10.551Z,0.00
2023-10-17T03:07:05.405Z,0.00
2023-10-17T03:08:00.741Z,0.00
2023-10-17T03:08:56.348Z,0.00
2023-10-17T03:09:51.543Z,0.00
2023-10-17T03:10:49.935Z,0.00
2023-10-17T03:11:42.605Z,0.00
2023-10-17T03:12:37.960Z,0.00
2023-10-17T03:13:33.025Z,0.00
2023-10-17T03:14:28.942Z,0.00
2023-10-17T03:15:23.942Z,0.00
2023-10-17T03:16:19.184Z,0.00
2023-10-17T03:17:15.144Z,0.00
2023-10-17T03:18:10.252Z,0.00
2023-10-17T03:19:05.505Z,0.00
2023-10-17T03:20:01.792Z,0.00
2023-10-17T03:20:57.002Z,0.00
2023-10-17T03:21:52.903Z,0.00
2023-10-17T03:22:47.928Z,0.00
2023-10-17T03:23:43.227Z,0.00
2023-10-17T03:24:39.084Z,0.00
2023-10-17T03:25:34.671Z,0.00
2023-10-17T03:26:30.104Z,0.00
2023-10-17T03:27:25.260Z,0.00
2023-10-17T03:28:20.622Z,0.00
2023-10-17T03:29:16.227Z,0.00
2023-10-17T03:30:11.464Z,0.00
2023-10-17T03:31:06.618Z,0.00
2023-10-17T03:32:03.228Z,0.00
2023-10-17T03:32:58.314Z,0.00
2023-10-17T03:33:54.060Z,0.00
2023-10-17T03:34:49.191Z,0.00
2023-10-17T03:35:44.423Z,0.00
2023-10-17T03:36:40.459Z,0.00
2023-10-17T03:37:35.438Z,0.00
2023-10-17T03:38:31.135Z,0.00
2023-10-17T03:39:26.286Z,0.00
2023-10-17T03:40:21.486Z,0.00
2023-10-17T03:41:17.367Z,0.00
2023-10-17T03:42:12.731Z,0.00
2023-10-17T03:43:07.879Z,0.00
2023-10-17T03:44:03.200Z,0.00
2023-10-17T03:44:59.150Z,0.00
2023-10-17T03:45:54.336Z,0.00
2023-10-17T03:46:49.838Z,0.00
2023-10-17T03:47:45.350Z,0.00
2023-10-17T03:48:40.559Z,0.00
2023-10-17T03:49:35.604Z,0.00
2023-10-17T03:50:32.034Z,0.00
2023-10-17T03:51:27.341Z,0.00
2023-10-17T03:52:23.233Z,0.00
2023-10-17T03:53:18.271Z,0.00
2023-10-17T03:54:13.593Z,0.00
2023-10-17T03:55:09.354Z,0.00
2023-10-17T03:56:04.603Z,0.00
2023-10-17T03:57:00.481Z,0.00
2023-10-17T03:57:55.522Z,0.00
2023-10-17T03:58:50.868Z,0.00
2023-10-17T03:59:46.028Z,0.00
2023-10-17T04:00:41.180Z,0.00
2023-10-17T04:01:36.271Z,0.00
2023-10-17T04:02:31.545Z,0.00
2023-10-17T04:03:26.572Z,0.00
2023-10-17T04:04:27.338Z,0.00
2023-10-17T04:05:17.658Z,0.00
2023-10-17T04:06:11.648Z,0.00
2023-10-17T04:07:06.671Z,0.00
2023-10-17T04:08:01.909Z,0.00
2023-10-17T04:08:56.891Z,0.00
2023-10-17T04:09:53.130Z,0.00
2023-10-17T04:10:48.224Z,0.00
2023-10-17T04:11:43.364Z,0.00
2023-10-17T04:12:38.633Z,0.00
2023-10-17T04:13:33.953Z,0.00
2023-10-17T04:14:29.111Z,0.00
2023-10-17T04:15:25.391Z,0.00
2023-10-17T04:16:20.684Z,0.00
2023-10-17T04:17:15.881Z,0.00
2023-10-17T04:18:15.328Z,0.00
2023-10-17T04:19:10.313Z,0.00
2023-10-17T04:20:05.537Z,0.00
2023-10-17T04:21:00.600Z,0.00
2023-10-17T04:22:09.898Z,0.00
2023-10-17T04:22:53.199Z,0.00
2023-10-17T04:23:47.520Z,0.00
2023-10-17T04:24:42.453Z,0.00
2023-10-17T04:25:37.616Z,0.00
2023-10-17T04:26:32.773Z,0.00
2023-10-17T04:27:27.969Z,0.00
2023-10-17T04:28:23.271Z,0.00
2023-10-17T04:29:18.929Z,0.00
2023-10-17T04:30:14.123Z,0.00
2023-10-17T04:31:10.006Z,0.00
2023-10-17T04:32:05.129Z,0.00
2023-10-17T04:33:00.516Z,0.00
2023-10-17T04:33:56.347Z,0.00
2023-10-17T04:34:51.413Z,0.00
2023-10-17T04:35:46.575Z,0.00
2023-10-17T04:36:42.974Z,0.00
2023-10-17T04:37:38.192Z,0.00
2023-10-17T04:38:34.236Z,0.00
2023-10-17T04:39:29.251Z,0.00
2023-10-17T04:40:24.600Z,0.00
2023-10-17T04:41:20.189Z,0.00
2023-10-17T04:42:15.451Z,0.00
2023-10-17T04:43:11.130Z,0.00
2023-10-17T04:44:06.458Z,0.00
2023-10-17T04:45:01.606Z,0.00
2023-10-17T04:45:57.412Z,0.00
2023-10-17T04:46:52.557Z,0.00
2023-10-17T04:47:47.783Z,0.00
2023-10-17T04:48:44.110Z,0.00
2023-10-17T04:49:39.313Z,0.00
2023-10-17T04:50:35.088Z,0.00
2023-10-17T04:51:30.308Z,0.00
2023-10-17T04:52:25.483Z,0.00
2023-10-17T04:53:21.340Z,0.00
2023-10-17T04:54:16.464Z,0.00
2023-10-17T04:55:12.354Z,0.00
2023-10-17T04:56:07.271Z,0.00
2023-10-17T04:57:02.532Z,0.00
2023-10-17T04:57:58.284Z,0.00
2023-10-17T04:58:53.497Z,0.00
2023-10-17T04:59:48.753Z,0.00
2023-10-17T05:00:45.337Z,0.00
2023-10-17T05:01:40.392Z,0.00
2023-10-17T05:02:36.245Z,0.00
2023-10-17T05:03:31.434Z,0.00
2023-10-17T05:04:26.928Z,0.00
2023-10-17T05:05:22.562Z,0.00
2023-10-17T05:06:17.872Z,0.00
2023-10-17T05:07:13.907Z,0.00
2023-10-17T05:08:09.076Z,0.00
2023-10-17T05:09:04.450Z,0.00
2023-10-17T05:10:00.099Z,0.00
2023-10-17T05:10:55.458Z,0.00
2023-10-17T05:11:50.547Z,0.00
2023-10-17T05:12:46.972Z,0.00
2023-10-17T05:13:42.137Z,0.00
2023-10-17T05:14:37.349Z,0.00
2023-10-17T05:15:33.311Z,0.00
2023-10-17T05:16:28.575Z,0.00
2023-10-17T05:17:24.256Z,0.00
2023-10-17T05:18:19.457Z,0.00
2023-10-17T05:19:14.650Z,0.00
2023-10-17T05:20:10.294Z,0.00
2023-10-17T05:21:05.525Z,0.00
2023-10-17T05:22:00.822Z,0.00
2023-10-17T05:22:57.029Z,0.00
2023-10-17T05:23:52.206Z,0.00
2023-10-17T05:24:48.114Z,0.00
2023-10-17T05:25:43.346Z,0.00
2023-10-17T05:26:38.627Z,0.00
2023-10-17T05:27:34.540Z,0.00
2023-10-17T05:28:29.765Z,0.00
2023-10-17T05:29:25.017Z,0.00
2023-10-17T05:30:20.293Z,0.00
2023-10-17T05:31:15.577Z,0.00
2023-10-17T05:32:10.760Z,0.00
2023-10-17T05:33:05.681Z,0.00
2023-10-17T05:34:00.769Z,0.00
2023-10-17T05:34:55.757Z,0.00
2023-10-17T05:35:50.883Z,0.00
2023-10-17T05:36:45.990Z,5.00
2023-10-17T05:37:41.033Z,5.00
2023-10-17T05:38:35.974Z,5.00
2023-10-17T05:39:31.070Z,5.00
2023-10-17T05:40:26.060Z,5.00
2023-10-17T05:41:21.134Z,5.00
2023-10-17T05:42:16.186Z,5.00
2023-10-17T05:43:11.253Z,5.00
2023-10-17T05:44:06.274Z,5.00
2023-10-17T05:45:01.320Z,5.00
2023-10-17T05:45:56.377Z,11.00
2023-10-17T05:46:51.390Z,11.00
2023-10-17T05:47:46.477Z,11.00
2023-10-17T05:48:41.505Z,11.00
2023-10-17T05:49:36.491Z,11.00
2023-10-17T05:50:31.749Z,11.00
2023-10-17T05:51:26.749Z,11.00
2023-10-17T05:52:21.990Z,11.00
2023-10-17T05:53:16.800Z,16.00
2023-10-17T05:54:37.163Z,16.00
2023-10-17T05:56:02.050Z,16.00
2023-10-17T05:56:57.002Z,16.00
2023-10-17T05:57:52.291Z,16.00
2023-10-17T05:58:47.200Z,22.00
2023-10-17T05:59:42.263Z,22.00
2023-10-17T06:00:37.366Z,22.00
2023-10-17T06:01:32.755Z,22.00
2023-10-17T06:02:28.250Z,28.00
2023-10-17T06:03:23.547Z,28.00
2023-10-17T06:04:18.927Z,28.00
2023-10-17T06:05:14.253Z,33.00
2023-10-17T06:06:18.028Z,33.00
2023-10-17T06:07:05.919Z,33.00
2023-10-17T06:08:00.330Z,33.00
2023-10-17T06:08:55.562Z,39.00
2023-10-17T06:09:50.959Z,39.00
2023-10-17T06:10:46.240Z,39.00
2023-10-17T06:11:41.539Z,39.00
2023-10-17T06:12:37.076Z,39.00
2023-10-17T06:13:32.347Z,45.00
2023-10-17T06:14:27.430Z,45.00
2023-10-17T06:15:22.679Z,50.00
2023-10-17T06:16:18.098Z,50.00
2023-10-17T06:17:13.388Z,56.00
2023-10-17T06:18:08.501Z,56.00
2023-10-17T06:19:03.403Z,61.00
2023-10-17T06:19:58.427Z,61.00
2023-10-17T06:20:53.422Z,67.00
2023-10-17T06:21:48.570Z,67.00
2023-10-17T06:22:43.565Z,73.00
2023-10-17T06:23:38.885Z,78.00
2023-10-17T06:24:33.747Z,78.00
2023-10-17T06:25:28.776Z,84.00
2023-10-17T06:26:23.745Z,84.00
2023-10-17T06:27:18.828Z,90.00
2023-10-17T06:28:13.982Z,90.00
2023-10-17T06:29:08.988Z,95.00
2023-10-17T06:30:04.015Z,95.00
2023-10-17T06:30:59.058Z,101.00
2023-10-17T06:31:54.047Z,101.00
2023-10-17T06:32:49.140Z,101.00
2023-10-17T06:33:44.415Z,101.00
2023-10-17T06:34:39.709Z,101.00
2023-10-17T06:35:36.475Z,101.00
2023-10-17T06:36:31.993Z,106.00
2023-10-17T06:37:27.529Z,106.00
2023-10-17T06:38:22.867Z,106.00
2023-10-17T06:39:18.386Z,106.00
2023-10-17T06:40:13.666Z,106.00
2023-10-17T06:41:09.147Z,112.00
2023-10-17T06:42:04.455Z,112.00
2023-10-17T06:42:59.789Z,118.00
2023-10-17T06:43:55.253Z,118.00
2023-10-17T06:44:50.482Z,118.00
2023-10-17T06:45:45.863Z,118.00
2023-10-17T06:46:41.173Z,118.00
2023-10-17T06:47:36.644Z,123.00
2023-10-17T06:48:31.943Z,123.00
2023-10-17T06:49:27.316Z,129.00
2023-10-17T06:50:22.661Z,135.00
2023-10-17T06:51:18.128Z,135.00
2023-10-17T06:52:13.225Z,135.00
2023-10-17T06:53:08.245Z,146.00
2023-10-17T06:54:03.296Z,151.00
2023-10-17T06:54:58.338Z,151.00
2023-10-17T06:55:53.420Z,151.00
2023-10-17T06:56:48.415Z,151.00
2023-10-17T06:57:43.561Z,151.00
2023-10-17T06:58:41.069Z,151.00
2023-10-17T06:59:35.997Z,151.00
2023-10-17T07:00:31.208Z,151.00
2023-10-17T07:01:26.473Z,146.00
2023-10-17T07:02:21.362Z,146.00
2023-10-17T07:03:16.498Z,151.00
2023-10-17T07:04:11.630Z,151.00
2023-10-17T07:05:06.592Z,151.00
2023-10-17T07:06:01.675Z,151.00
2023-10-17T07:06:57.124Z,157.00
2023-10-17T07:07:52.425Z,157.00
2023-10-17T07:08:47.964Z,163.00
2023-10-17T07:09:43.411Z,163.00
2023-10-17T07:10:38.693Z,168.00
2023-10-17T07:11:33.982Z,168.00
2023-10-17T07:12:29.486Z,180.00
2023-10-17T07:13:24.763Z,174.00
2023-10-17T07:14:20.411Z,174.00
2023-10-17T07:15:15.624Z,168.00
2023-10-17T07:16:11.077Z,168.00
2023-10-17T07:17:06.339Z,168.00
2023-10-17T07:18:03.076Z,174.00
2023-10-17T07:18:58.452Z,168.00
2023-10-17T07:19:54.011Z,168.00
2023-10-17T07:20:49.168Z,163.00
2023-10-17T07:21:45.115Z,168.00
2023-10-17T07:22:40.632Z,174.00
2023-10-17T07:23:36.401Z,185.00
2023-10-17T07:24:32.236Z,185.00
2023-10-17T07:25:27.227Z,191.00
2023-10-17T07:26:22.551Z,191.00
2023-10-17T07:27:18.000Z,191.00
2023-10-17T07:28:12.936Z,196.00
2023-10-17T07:29:08.029Z,202.00
2023-10-17T07:30:03.084Z,208.00
2023-10-17T07:30:58.165Z,213.00
2023-10-17T07:31:53.182Z,219.00
2023-10-17T07:32:48.271Z,225.00
2023-10-17T07:33:43.416Z,230.00
2023-10-17T07:34:38.945Z,241.00
2023-10-17T07:35:33.985Z,247.00
2023-10-17T07:36:29.236Z,247.00
2023-10-17T07:37:24.339Z,253.00
2023-10-17T07:38:19.339Z,253.00
2023-10-17T07:39:14.408Z,253.00
2023-10-17T07:40:09.473Z,258.00
2023-10-17T07:41:04.500Z,258.00
2023-10-17T07:41:59.545Z,247.00
2023-10-17T07:42:54.607Z,236.00
2023-10-17T07:43:49.655Z,230.00
2023-10-17T07:44:44.751Z,230.00
2023-10-17T07:45:40.428Z,236.00
2023-10-17T07:46:34.959Z,236.00
2023-10-17T07:47:30.347Z,230.00
2023-10-17T07:48:25.926Z,225.00
2023-10-17T07:49:21.144Z,225.00
2023-10-17T07:50:16.426Z,230.00
2023-10-17T07:51:12.066Z,230.00
2023-10-17T07:52:07.222Z,230.00
2023-10-17T07:53:02.690Z,230.00
2023-10-17T07:53:57.972Z,230.00
2023-10-17T07:54:53.454Z,230.00
2023-10-17T07:55:48.756Z,225.00
2023-10-17T07:56:44.345Z,230.00
2023-10-17T07:57:43.778Z,230.00
2023-10-17T07:58:39.177Z,241.00
2023-10-17T07:59:34.587Z,247.00
2023-10-17T08:00:31.942Z,253.00
2023-10-17T08:01:25.544Z,247.00
2023-10-17T08:02:20.757Z,241.00
2023-10-17T08:03:16.773Z,247.00
2023-10-17T08:04:11.560Z,253.00
2023-10-17T08:05:07.008Z,253.00
2023-10-17T08:06:02.420Z,258.00
2023-10-17T08:06:57.722Z,264.00
2023-10-17T08:07:53.083Z,275.00
2023-10-17T08:08:48.488Z,281.00
2023-10-17T08:09:44.000Z,286.00
2023-10-17T08:10:39.308Z,315.00
2023-10-17T08:11:34.795Z,331.00
2023-10-17T08:12:30.125Z,331.00
2023-10-17T08:13:25.571Z,326.00
2023-10-17T08:14:21.357Z,303.00
2023-10-17T08:15:16.826Z,292.00
2023-10-17T08:16:12.028Z,315.00
2023-10-17T08:18:32.485Z,365.00
2023-10-17T08:19:27.761Z,360.00
2023-10-17T08:20:22.959Z,360.00
2023-10-17T08:21:18.457Z,360.00
2023-10-17T08:22:13.744Z,360.00
2023-10-17T08:23:09.196Z,354.00
2023-10-17T08:24:04.516Z,354.00
2023-10-17T08:24:59.988Z,354.00
2023-10-17T08:25:55.292Z,365.00
2023-10-17T08:26:50.823Z,354.00
2023-10-17T08:27:46.123Z,354.00
2023-10-17T08:28:41.661Z,354.00
2023-10-17T08:29:36.806Z,354.00
2023-10-17T08:30:44.213Z,343.00
2023-10-17T08:31:28.779Z,337.00
2023-10-17T08:32:23.143Z,337.00
2023-10-17T08:33:18.435Z,331.00
2023-10-17T08:34:13.772Z,326.00
2023-10-17T08:35:09.181Z,320.00
2023-10-17T08:36:04.788Z,309.00
2023-10-17T08:36:59.984Z,315.00
2023-10-17T08:37:55.442Z,331.00
2023-10-17T08:38:50.727Z,326.00
2023-10-17T08:39:46.198Z,326.00
2023-10-17T08:40:41.549Z,337.00
2023-10-17T08:41:36.889Z,348.00
2023-10-17T08:42:32.638Z,354.00
2023-10-17T08:43:27.769Z,343.00
2023-10-17T08:44:23.070Z,348.00
2023-10-17T08:45:18.552Z,354.00
2023-10-17T08:46:14.057Z,337.00
2023-10-17T08:47:09.275Z,337.00
2023-10-17T08:48:04.615Z,343.00
2023-10-17T08:49:00.003Z,343.00
2023-10-17T08:49:55.272Z,343.00
2023-10-17T08:50:50.735Z,343.00
2023-10-17T08:51:46.117Z,365.00
2023-10-17T08:52:41.767Z,388.00
2023-10-17T08:53:38.026Z,405.00
2023-10-17T08:54:32.407Z,450.00
2023-10-17T08:55:27.840Z,461.00
2023-10-17T08:56:23.347Z,438.00
2023-10-17T08:57:18.676Z,399.00
2023-10-17T08:58:14.147Z,450.00
2023-10-17T08:59:09.550Z,427.00
2023-10-17T09:00:04.879Z,405.00
2023-10-17T09:01:00.430Z,405.00
2023-10-17T09:01:55.665Z,399.00
2023-10-17T09:02:51.297Z,360.00
2023-10-17T09:03:46.548Z,354.00
2023-10-17T09:04:42.038Z,348.00
2023-10-17T09:05:37.349Z,337.00
2023-10-17T09:06:32.800Z,343.00
2023-10-17T09:07:28.107Z,337.00
2023-10-17T09:08:23.715Z,331.00
2023-10-17T09:09:19.145Z,326.00
2023-10-17T09:10:14.312Z,320.00
2023-10-17T09:11:09.709Z,320.00
2023-10-17T09:12:05.243Z,326.00
2023-10-17T09:13:00.648Z,337.00
2023-10-17T09:13:55.947Z,348.00
2023-10-17T09:14:51.264Z,371.00
2023-10-17T09:15:46.734Z,410.00
2023-10-17T09:16:42.028Z,416.00
2023-10-17T09:17:37.390Z,405.00
2023-10-17T09:18:32.839Z,433.00
2023-10-17T09:19:28.264Z,416.00
2023-10-17T09:20:23.440Z,388.00
2023-10-17T09:21:18.890Z,416.00
2023-10-17T09:22:14.230Z,450.00
2023-10-17T09:23:09.747Z,506.00
2023-10-17T09:24:05.103Z,568.00
2023-10-17T09:25:00.508Z,573.00
2023-10-17T09:25:55.828Z,573.00
2023-10-17T09:26:51.368Z,551.00
2023-10-17T09:27:46.896Z,545.00
2023-10-17T09:28:42.422Z,545.00
2023-10-17T09:29:37.630Z,511.00
2023-10-17T09:30:33.080Z,495.00
2023-10-17T09:31:28.491Z,466.00
2023-10-17T09:32:24.036Z,483.00
2023-10-17T09:33:19.545Z,511.00
2023-10-17T09:34:14.950Z,478.00
2023-10-17T09:35:10.415Z,466.00
2023-10-17T09:36:05.839Z,489.00
2023-10-17T09:37:01.392Z,461.00
2023-10-17T09:37:56.738Z,450.00
2023-10-17T09:38:52.059Z,427.00
2023-10-17T09:39:47.521Z,410.00
2023-10-17T09:40:49.267Z,393.00
2023-10-17T09:41:39.512Z,382.00
2023-10-17T09:42:33.749Z,399.00
2023-10-17T09:43:29.320Z,405.00
2023-10-17T09:44:24.796Z,399.00
2023-10-17T09:46:15.610Z,427.00
2023-10-17T09:47:10.883Z,427.00
2023-10-17T09:48:07.102Z,444.00
2023-10-17T09:49:02.019Z,455.00
2023-10-17T09:49:57.026Z,450.00
2023-10-17T09:50:52.273Z,444.00
2023-10-17T09:51:47.636Z,450.00
2023-10-17T09:52:42.989Z,433.00
2023-10-17T09:53:38.261Z,410.00
2023-10-17T09:54:33.793Z,410.00
2023-10-17T09:55:29.084Z,416.00
2023-10-17T09:56:24.513Z,416.00
2023-10-17T09:57:19.998Z,433.00
2023-10-17T09:58:15.205Z,433.00
2023-10-17T09:59:10.766Z,444.00
2023-10-17T10:00:05.987Z,455.00
2023-10-17T10:01:01.326Z,461.00
2023-10-17T10:01:56.876Z,450.00
2023-10-17T10:03:01.590Z,461.00
2023-10-17T10:03:48.850Z,478.00
2023-10-17T10:04:43.300Z,500.00
2023-10-17T10:05:38.773Z,506.00
2023-10-17T10:06:34.758Z,500.00
2023-10-17T10:07:29.536Z,540.00
2023-10-17T10:08:24.899Z,534.00
2023-10-17T10:09:20.614Z,534.00
2023-10-17T10:10:15.969Z,517.00
2023-10-17T10:11:11.344Z,534.00
2023-10-17T10:12:06.808Z,523.00
2023-10-17T10:13:02.346Z,540.00
2023-10-17T10:13:57.696Z,500.00
2023-10-17T10:14:53.294Z,495.00
2023-10-17T10:15:48.712Z,466.00
2023-10-17T10:16:44.108Z,461.00
2023-10-17T10:17:39.449Z,455.00
2023-10-17T10:18:34.892Z,483.00
2023-10-17T10:19:30.399Z,478.00
2023-10-17T10:20:25.873Z,466.00
2023-10-17T10:21:21.292Z,466.00
2023-10-17T10:22:16.680Z,466.00
2023-10-17T10:23:12.192Z,455.00
2023-10-17T10:24:07.459Z,455.00
2023-10-17T10:25:02.834Z,455.00
2023-10-17T10:25:58.248Z,450.00
2023-10-17T10:26:53.583Z,444.00
2023-10-17T10:27:48.969Z,433.00
2023-10-17T10:28:44.243Z,427.00
2023-10-17T10:29:39.730Z,433.00
2023-10-17T10:30:35.089Z,450.00
2023-10-17T10:31:30.515Z,444.00
2023-10-17T10:32:25.909Z,450.00
2023-10-17T10:33:21.401Z,461.00
2023-10-17T10:34:16.596Z,455.00
2023-10-17T10:35:12.113Z,461.00
2023-10-17T10:36:07.433Z,461.00
2023-10-17T10:37:02.914Z,455.00
2023-10-17T10:37:58.256Z,450.00
2023-10-17T10:38:53.723Z,444.00
2023-10-17T10:39:49.059Z,450.00
2023-10-17T10:40:46.415Z,461.00
2023-10-17T10:41:39.851Z,472.00
2023-10-17T10:42:35.363Z,478.00
2023-10-17T10:43:30.847Z,472.00
2023-10-17T10:44:26.363Z,478.00
2023-10-17T10:45:21.917Z,489.00
2023-10-17T10:46:19.494Z,495.00
2023-10-17T10:47:12.683Z,534.00
2023-10-17T10:48:08.126Z,551.00
2023-10-17T10:49:03.605Z,551.00
2023-10-17T10:49:59.139Z,540.00
2023-10-17T10:50:54.347Z,511.00
2023-10-17T10:51:49.779Z,495.00
2023-10-17T10:52:45.116Z,478.00
2023-10-17T10:53:40.780Z,472.00
2023-10-17T10:54:36.152Z,483.00
2023-10-17T10:55:31.768Z,489.00
2023-10-17T10:56:27.109Z,495.00
2023-10-17T10:57:22.670Z,500.00
2023-10-17T10:58:17.989Z,500.00
2023-10-17T10:59:13.665Z,495.00
2023-10-17T11:00:09.087Z,500.00
2023-10-17T11:01:04.609Z,489.00
2023-10-17T11:01:59.912Z,483.00
2023-10-17T11:02:55.332Z,466.00
2023-10-17T11:03:50.819Z,478.00
2023-10-17T11:04:46.236Z,483.00
2023-10-17T11:05:41.789Z,483.00
2023-10-17T11:06:37.287Z,500.00
2023-10-17T11:07:32.676Z,511.00
2023-10-17T11:08:28.112Z,517.00
2023-10-17T11:09:23.532Z,534.00
2023-10-17T11:10:19.148Z,540.00
2023-10-17T11:11:14.683Z,534.00
2023-10-17T11:12:09.920Z,528.00
2023-10-17T11:13:05.472Z,545.00
2023-10-17T11:14:01.582Z,573.00
2023-10-17T11:15:05.110Z,579.00
2023-10-17T11:15:52.797Z,590.00
2023-10-17T11:16:46.966Z,596.00
2023-10-17T11:17:42.510Z,585.00
2023-10-17T11:18:37.894Z,590.00
2023-10-17T11:19:33.397Z,585.00
2023-10-17T11:20:28.745Z,585.00
2023-10-17T11:21:24.533Z,607.00
2023-10-17T11:22:19.665Z,607.00
2023-10-17T11:23:15.158Z,590.00
2023-10-17T11:24:10.548Z,601.00
2023-10-17T11:25:06.115Z,618.00
2023-10-17T11:26:07.404Z,641.00
2023-10-17T11:26:58.013Z,624.00
2023-10-17T11:27:52.420Z,613.00
2023-10-17T11:28:48.134Z,613.00
2023-10-17T11:29:43.464Z,630.00
2023-10-17T11:30:39.046Z,630.00
2023-10-17T11:31:34.533Z,624.00
2023-10-17T11:32:29.925Z,618.00
2023-10-17T11:33:25.298Z,630.00
2023-10-17T11:34:20.917Z,635.00
2023-10-17T11:35:16.306Z,641.00
2023-10-17T11:36:11.876Z,635.00
2023-10-17T11:37:07.353Z,618.00
2023-10-17T11:38:08.160Z,607.00
2023-10-17T11:38:59.158Z,607.00
2023-10-17T11:39:53.630Z,607.00
2023-10-17T11:40:48.984Z,613.00
2023-10-17T11:41:44.378Z,601.00
2023-10-17T11:42:39.832Z,585.00
2023-10-17T11:43:35.178Z,579.00
2023-10-17T11:44:30.770Z,573.00
2023-10-17T11:45:34.813Z,562.00
2023-10-17T11:46:22.382Z,562.00
2023-10-17T11:47:17.005Z,562.00
2023-10-17T11:48:12.427Z,551.00
2023-10-17T11:49:07.779Z,562.00
2023-10-17T11:50:03.186Z,573.00
2023-10-17T11:50:58.843Z,568.00
2023-10-17T11:51:54.377Z,568.00
2023-10-17T11:52:49.614Z,579.00
2023-10-17T11:53:44.939Z,590.00
2023-10-17T11:54:40.730Z,596.00
2023-10-17T11:55:36.019Z,613.00
2023-10-17T11:56:31.405Z,613.00
2023-10-17T11:57:26.990Z,607.00